Time;durP1;ratioP1;P1;durP2;ratioP2;P2;SDS_P1;SDS_P2;PMS_P1;PMS_P2;Temp;Humidity;BMP_temperature;BMP_pressure;BME280_temperature;BME280_humidity;BME280_pressure;Samples;Min_cycle;Max_cycle;Signal;HPM_P1;HPM_P2
2023/06/05 00:01:09;;;;;;;12.40;11.20;;;17.60;99.90;;;;;;6061242;23;20405;-79
2023/06/05 00:03:37;;;;;;;12.02;10.90;;;17.60;99.90;;;;;;6060070;23;20379;-79
2023/06/05 00:06:06;;;;;;;13.02;11.60;;;17.60;99.90;;;;;;6061063;23;20718;-79
2023/06/05 00:08:33;;;;;;;12.18;10.93;;;17.50;99.90;;;;;;6060337;23;20435;-79
2023/06/05 00:11:00;;;;;;;10.23;9.23;;;17.50;99.90;;;;;;6061449;23;20407;-79
2023/06/05 00:13:27;;;;;;;7.40;6.78;;;17.50;99.90;;;;;;6060324;23;20421;-78
2023/06/05 00:15:54;;;;;;;6.15;5.55;;;17.40;99.90;;;;;;6060748;23;20379;-79
2023/06/05 00:18:21;;;;;;;5.40;4.93;;;17.40;99.90;;;;;;6084278;23;20434;-79
2023/06/05 00:20:49;;;;;;;5.00;4.60;;;17.30;99.90;;;;;;6063039;23;20387;-79
2023/06/05 00:23:16;;;;;;;4.68;4.28;;;17.20;99.90;;;;;;6060237;23;20383;-80
2023/06/05 00:25:42;;;;;;;4.33;3.93;;;17.20;99.90;;;;;;6061091;23;20375;-78
2023/06/05 00:28:09;;;;;;;4.20;3.80;;;17.20;99.90;;;;;;6060569;23;20718;-78
2023/06/05 00:30:37;;;;;;;3.70;3.40;;;17.10;99.90;;;;;;6057183;23;20394;-77
2023/06/05 00:33:04;;;;;;;3.67;3.38;;;17.10;99.90;;;;;;6058699;23;20468;-78
2023/06/05 00:35:31;;;;;;;3.80;3.38;;;17.00;99.90;;;;;;6059356;23;20386;-78
2023/06/05 00:37:58;;;;;;;4.25;3.85;;;17.00;99.90;;;;;;6060384;23;20379;-78
2023/06/05 00:40:25;;;;;;;4.13;3.72;;;16.90;99.90;;;;;;6060115;23;20380;-78
2023/06/05 00:42:52;;;;;;;4.60;4.18;;;16.90;99.90;;;;;;6060734;23;20892;-78
2023/06/05 00:45:19;;;;;;;4.63;4.22;;;16.90;99.90;;;;;;6059725;23;20387;-78
2023/06/05 00:47:46;;;;;;;5.33;4.83;;;16.90;99.90;;;;;;6083908;23;20386;-78
2023/06/05 00:50:15;;;;;;;4.13;3.72;;;16.90;99.90;;;;;;6061652;23;20395;-78
2023/06/05 00:52:42;;;;;;;3.70;3.20;;;16.90;99.90;;;;;;6032078;23;20377;-78
2023/06/05 00:55:11;;;;;;;5.00;4.47;;;16.90;99.90;;;;;;6033176;23;20707;-78
2023/06/05 00:57:39;;;;;;;5.95;5.40;;;16.90;99.90;;;;;;6035374;23;20709;-78
2023/06/05 01:00:12;;;;;;;5.80;5.30;;;16.90;99.90;;;;;;6039474;23;20719;-79
2023/06/05 01:02:40;;;;;;;6.05;5.10;;;16.90;99.90;;;;;;6101967;23;20383;-81
2023/06/05 02:43:20;;;;;;;5.87;5.20;;;16.90;99.90;;;;;;6029533;23;20360;-75
2023/06/05 02:45:46;;;;;;;6.85;6.15;;;16.90;99.90;;;;;;6091396;23;20441;-75
2023/06/05 02:48:13;;;;;;;6.13;5.57;;;16.80;99.90;;;;;;6090688;23;20473;-74
2023/06/05 02:50:40;;;;;;;5.65;5.15;;;16.80;99.90;;;;;;6092240;23;20382;-75
2023/06/05 02:53:07;;;;;;;5.55;5.05;;;16.80;99.90;;;;;;6089599;23;20384;-75
2023/06/05 02:55:34;;;;;;;5.07;4.55;;;16.80;99.90;;;;;;6089372;23;20448;-75
2023/06/05 02:58:01;;;;;;;4.85;4.45;;;16.80;99.90;;;;;;6090833;23;20393;-76
2023/06/05 03:00:28;;;;;;;4.70;4.30;;;16.90;99.90;;;;;;6090003;23;20382;-76
2023/06/05 03:02:55;;;;;;;5.43;4.93;;;16.90;99.90;;;;;;6090440;23;20850;-76
2023/06/05 03:05:26;;;;;;;5.05;4.30;;;16.90;99.90;;;;;;6060718;23;20428;-77
2023/06/05 03:07:53;;;;;;;4.63;4.22;;;16.90;99.90;;;;;;6061822;23;20387;-76
2023/06/05 03:10:21;;;;;;;4.38;4.00;;;16.90;99.90;;;;;;6059943;23;20390;-77
2023/06/05 03:12:48;;;;;;;4.70;4.30;;;16.90;99.90;;;;;;6061404;23;20379;-76
2023/06/05 03:15:16;;;;;;;4.20;3.80;;;16.90;99.90;;;;;;6060722;23;20698;-76
2023/06/05 03:17:43;;;;;;;7.28;5.13;;;16.90;99.90;;;;;;6060802;23;20757;-76
2023/06/05 03:20:10;;;;;;;4.63;4.13;;;16.90;99.90;;;;;;6061909;23;20923;-77
2023/06/05 03:22:38;;;;;;;4.60;4.20;;;16.80;99.90;;;;;;6061738;23;20383;-77
2023/06/05 03:25:05;;;;;;;4.20;3.70;;;16.80;99.90;;;;;;6061777;23;20786;-76
2023/06/05 03:27:32;;;;;;;3.55;3.25;;;16.70;99.90;;;;;;6061429;23;20382;-76
2023/06/05 03:29:59;;;;;;;3.75;3.45;;;16.70;99.90;;;;;;6061711;23;20383;-76
2023/06/05 03:32:26;;;;;;;4.43;4.03;;;16.70;99.90;;;;;;6061865;23;20382;-77
2023/06/05 03:34:53;;;;;;;4.60;4.20;;;16.60;99.90;;;;;;6061507;23;20387;-77
2023/06/05 03:37:20;;;;;;;4.38;3.45;;;16.60;99.90;;;;;;6060840;23;20383;-76
2023/06/05 03:39:47;;;;;;;3.25;2.95;;;16.60;99.90;;;;;;6061034;23;20387;-77
2023/06/05 03:42:14;;;;;;;3.30;3.00;;;16.50;99.90;;;;;;6061512;23;20383;-77
2023/06/05 03:44:40;;;;;;;3.40;3.08;;;16.50;99.90;;;;;;6060601;23;20401;-76
2023/06/05 03:47:07;;;;;;;3.20;2.83;;;16.50;99.90;;;;;;6061469;23;20387;-77
2023/06/05 03:49:35;;;;;;;4.03;3.65;;;16.50;99.90;;;;;;6060967;23;20387;-77
2023/06/05 03:52:03;;;;;;;4.05;3.67;;;16.50;99.90;;;;;;6061442;23;20375;-77
2023/06/05 03:54:33;;;;;;;3.90;3.40;;;16.50;99.90;;;;;;6060887;23;20387;-77
2023/06/05 03:57:00;;;;;;;4.60;4.20;;;16.50;99.90;;;;;;6061476;23;20387;-77
2023/06/05 03:59:28;;;;;;;4.10;3.70;;;16.40;99.90;;;;;;6060422;23;20888;-76
2023/06/05 04:01:56;;;;;;;4.00;3.50;;;16.50;99.90;;;;;;6061105;23;20394;-77
2023/06/05 04:04:23;;;;;;;4.57;4.18;;;16.40;99.90;;;;;;6059886;23;20422;-77
2023/06/05 04:06:51;;;;;;;3.22;3.03;;;16.40;99.90;;;;;;6061550;23;20693;-76
2023/06/05 04:09:18;;;;;;;4.57;3.60;;;16.30;99.90;;;;;;6060178;23;20911;-77
2023/06/05 04:11:45;;;;;;;4.32;3.92;;;16.30;99.90;;;;;;6062917;23;20379;-77
2023/06/05 04:14:12;;;;;;;4.40;4.00;;;16.40;99.90;;;;;;6061185;23;20386;-77
2023/06/05 04:16:42;;;;;;;4.40;4.00;;;16.40;99.90;;;;;;6060382;23;20378;-77
2023/06/05 04:19:11;;;;;;;3.75;3.45;;;16.40;99.90;;;;;;6060802;23;20379;-77
2023/06/05 04:21:39;;;;;;;4.30;3.90;;;16.30;99.90;;;;;;6060705;23;20734;-77
2023/06/05 04:24:08;;;;;;;7.90;4.80;;;16.40;99.90;;;;;;6061120;23;20383;-77
2023/06/05 04:26:36;;;;;;;3.90;3.60;;;16.40;99.90;;;;;;6060193;23;20714;-77
2023/06/05 04:29:13;;;;;;;3.60;3.30;;;16.40;99.90;;;;;;6060745;23;20434;-78
2023/06/05 04:31:45;;;;;;;5.50;4.60;;;16.40;99.90;;;;;;6061536;23;20383;-76
2023/06/05 04:34:12;;;;;;;4.88;4.38;;;16.40;99.90;;;;;;6060502;23;20763;-76
2023/06/05 04:36:42;;;;;;;4.20;3.75;;;16.30;99.90;;;;;;6059552;23;20375;-76
2023/06/05 04:39:14;;;;;;;4.55;4.15;;;16.30;99.90;;;;;;6060497;23;20442;-77
2023/06/05 04:41:46;;;;;;;4.13;3.65;;;16.30;99.90;;;;;;6061783;23;20380;-76
2023/06/05 04:44:28;;;;;;;6.00;5.40;;;16.40;99.90;;;;;;6060599;23;20383;-76
2023/06/05 04:46:55;;;;;;;6.07;5.00;;;16.30;99.90;;;;;;6061163;23;20375;-76
2023/06/05 04:49:23;;;;;;;6.00;5.40;;;16.30;99.90;;;;;;6060084;23;20383;-76
2023/06/05 04:51:50;;;;;;;5.03;4.35;;;16.30;99.90;;;;;;6060107;23;20843;-77
2023/06/05 04:54:16;;;;;;;4.38;3.95;;;16.20;99.90;;;;;;6062631;23;20383;-76
2023/06/05 04:56:45;;;;;;;4.05;3.65;;;16.20;99.90;;;;;;6061169;23;20375;-76
2023/06/05 04:59:12;;;;;;;4.43;4.03;;;16.20;99.90;;;;;;6061231;23;20379;-76
2023/06/05 05:01:40;;;;;;;5.22;4.32;;;16.20;99.90;;;;;;6059852;23;20387;-76
2023/06/05 05:04:08;;;;;;;5.40;4.43;;;16.30;99.90;;;;;;6060450;23;20387;-77
2023/06/05 05:06:35;;;;;;;4.43;4.03;;;16.30;99.90;;;;;;6059106;23;20406;-76
2023/06/05 05:09:02;;;;;;;4.45;4.05;;;16.20;99.90;;;;;;6062406;23;20379;-76
2023/06/05 05:11:31;;;;;;;4.07;3.70;;;16.30;99.90;;;;;;6059818;23;20391;-76
2023/06/05 05:13:58;;;;;;;4.50;4.10;;;16.30;99.90;;;;;;6060534;23;20379;-77
2023/06/05 05:16:25;;;;;;;3.97;3.67;;;16.30;99.90;;;;;;6061428;23;20379;-77
2023/06/05 05:18:52;;;;;;;4.78;4.05;;;16.30;99.90;;;;;;6061225;23;20386;-77
2023/06/05 05:21:18;;;;;;;4.57;4.10;;;16.40;99.90;;;;;;6060681;23;20374;-76
2023/06/05 05:23:45;;;;;;;4.38;3.95;;;16.40;99.90;;;;;;6059464;23;20379;-76
2023/06/05 05:26:12;;;;;;;4.40;3.47;;;16.40;99.90;;;;;;6061435;23;20393;-76
2023/06/05 05:28:39;;;;;;;4.03;3.42;;;16.40;99.90;;;;;;6059681;23;20387;-76
2023/06/05 05:31:06;;;;;;;4.22;3.78;;;16.50;99.90;;;;;;6060565;23;20770;-76
2023/06/05 05:33:33;;;;;;;4.18;3.78;;;16.60;99.90;;;;;;6061181;23;20409;-76
2023/06/05 05:36:01;;;;;;;4.20;3.80;;;16.60;99.90;;;;;;6060480;23;20476;-77
2023/06/05 05:38:27;;;;;;;4.50;4.10;;;16.70;99.90;;;;;;6059286;23;20398;-77
2023/06/05 05:40:54;;;;;;;3.78;3.47;;;16.60;99.90;;;;;;6061374;23;20382;-76
2023/06/05 05:43:21;;;;;;;3.70;3.40;;;16.70;99.90;;;;;;6062075;23;20387;-76
2023/06/05 05:45:48;;;;;;;2.80;2.60;;;16.70;99.90;;;;;;6062040;23;20386;-76
2023/06/05 05:48:15;;;;;;;2.70;2.50;;;16.70;99.90;;;;;;6062076;23;20395;-76
2023/06/05 05:50:42;;;;;;;3.15;2.85;;;16.80;99.90;;;;;;6061335;23;20462;-76
2023/06/05 05:53:09;;;;;;;3.75;3.45;;;16.90;99.90;;;;;;6062010;23;20438;-76
2023/06/05 05:55:36;;;;;;;5.33;3.40;;;16.90;99.90;;;;;;6056302;23;20793;-76
2023/06/05 05:58:03;;;;;;;3.75;3.45;;;17.00;99.90;;;;;;6062832;23;20383;-76
2023/06/05 06:00:30;;;;;;;3.28;2.60;;;17.00;99.90;;;;;;6060884;23;20457;-76
2023/06/05 06:02:57;;;;;;;2.83;2.63;;;17.00;99.90;;;;;;6060593;23;20411;-77
2023/06/05 06:05:24;;;;;;;3.17;2.90;;;17.10;99.90;;;;;;6061530;23;20382;-76
2023/06/05 06:07:51;;;;;;;3.90;3.45;;;17.10;99.90;;;;;;6061300;23;20714;-76
2023/06/05 06:10:19;;;;;;;4.30;3.85;;;17.10;99.90;;;;;;6061108;23;20392;-76
2023/06/05 06:12:46;;;;;;;3.38;3.08;;;17.10;99.90;;;;;;6059914;23;20383;-76
2023/06/05 06:15:14;;;;;;;3.58;3.10;;;17.20;99.90;;;;;;6062295;23;20758;-76
2023/06/05 06:17:41;;;;;;;2.70;2.50;;;17.20;99.90;;;;;;6061159;23;20596;-76
2023/06/05 06:20:11;;;;;;;7.47;3.58;;;17.20;99.90;;;;;;6061837;23;20383;-76
2023/06/05 06:22:39;;;;;;;3.42;2.78;;;17.20;99.90;;;;;;6061440;23;20415;-77
2023/06/05 06:25:09;;;;;;;4.45;4.03;;;17.30;99.90;;;;;;6061873;23;20444;-76
2023/06/05 06:27:37;;;;;;;5.30;4.80;;;17.30;99.90;;;;;;6062490;23;20446;-77
2023/06/05 06:30:05;;;;;;;8.35;4.68;;;17.30;99.90;;;;;;6063702;23;20746;-77
2023/06/05 06:32:32;;;;;;;5.88;5.28;;;17.40;99.90;;;;;;6061066;23;20370;-77
2023/06/05 06:34:59;;;;;;;4.80;4.40;;;17.40;99.90;;;;;;6061998;23;20451;-76
2023/06/05 06:37:26;;;;;;;5.80;5.20;;;17.40;99.90;;;;;;6061859;23;20399;-76
2023/06/05 06:39:53;;;;;;;3.90;3.45;;;17.40;99.90;;;;;;6061220;23;20371;-76
2023/06/05 06:42:20;;;;;;;4.35;3.95;;;17.50;99.90;;;;;;6062216;23;20434;-76
2023/06/05 06:44:47;;;;;;;4.05;3.63;;;17.50;99.90;;;;;;6060768;23;20375;-76
2023/06/05 06:47:14;;;;;;;4.95;3.75;;;17.60;99.90;;;;;;6038301;23;20378;-76
2023/06/05 06:49:41;;;;;;;5.03;4.50;;;17.70;99.90;;;;;;6060695;23;20710;-77
2023/06/05 06:52:08;;;;;;;4.30;3.90;;;17.80;99.90;;;;;;6061157;23;20434;-76
2023/06/05 06:54:37;;;;;;;3.75;3.33;;;17.90;99.90;;;;;;6060832;23;20387;-76
2023/06/05 06:57:05;;;;;;;2.97;2.78;;;18.00;99.90;;;;;;6061398;23;20387;-76
2023/06/05 06:59:32;;;;;;;2.50;2.30;;;18.10;99.90;;;;;;6060975;23;20750;-76
2023/06/05 07:02:31;;;;;;;2.90;2.35;;;18.20;99.90;;;;;;6061127;23;20757;-77
2023/06/05 07:04:58;;;;;;;2.72;2.25;;;18.30;99.90;;;;;;6045529;23;20437;-77
2023/06/05 07:07:25;;;;;;;1.88;1.70;;;18.40;99.90;;;;;;6061339;23;20379;-77
2023/06/05 07:09:52;;;;;;;2.10;1.90;;;18.60;99.90;;;;;;6060396;23;20379;-77
2023/06/05 07:12:20;;;;;;;2.20;2.00;;;18.70;99.90;;;;;;6036278;23;20379;-77
2023/06/05 07:14:50;;;;;;;1.80;1.70;;;18.90;99.90;;;;;;6060122;23;20691;-78
2023/06/05 07:17:17;;;;;;;2.70;1.80;;;19.00;99.90;;;;;;6062075;23;20471;-80
2023/06/05 07:19:44;;;;;;;1.90;1.70;;;19.10;99.90;;;;;;6060614;23;20465;-78
2023/06/05 07:22:11;;;;;;;2.33;2.10;;;19.20;99.90;;;;;;6061702;23;20379;-78
2023/06/05 07:24:38;;;;;;;2.30;2.10;;;19.40;99.90;;;;;;6060520;23;20385;-78
2023/06/05 07:27:06;;;;;;;3.75;2.50;;;19.50;99.90;;;;;;6062687;23;20379;-78
2023/06/05 07:29:33;;;;;;;2.60;2.40;;;19.80;99.90;;;;;;6061466;23;20379;-78
2023/06/05 07:32:00;;;;;;;3.63;3.00;;;20.00;99.90;;;;;;6060638;23;20718;-78
2023/06/05 07:34:27;;;;;;;3.22;2.92;;;20.10;99.90;;;;;;6061259;23;20390;-78
2023/06/05 07:36:56;;;;;;;4.32;3.53;;;20.20;99.90;;;;;;6060551;23;20379;-78
2023/06/05 07:39:23;;;;;;;3.72;3.40;;;20.30;99.90;;;;;;6061679;23;20387;-77
2023/06/05 07:41:51;;;;;;;3.45;3.08;;;20.40;99.90;;;;;;6062119;23;20382;-78
2023/06/05 07:44:21;;;;;;;3.38;2.63;;;20.50;99.90;;;;;;6061322;23;20383;-79
2023/06/05 07:46:49;;;;;;;2.95;2.67;;;20.80;99.90;;;;;;6060915;23;20857;-80
2023/06/05 07:49:17;;;;;;;3.20;2.90;;;21.00;99.90;;;;;;6061690;23;20383;-77
2023/06/05 07:51:47;;;;;;;3.15;2.90;;;21.20;99.90;;;;;;6061607;23;20394;-77
2023/06/05 07:54:18;;;;;;;2.10;1.97;;;21.30;99.90;;;;;;6063371;23;20750;-78
2023/06/05 07:56:48;;;;;;;2.17;1.90;;;21.30;97.30;;;;;;6059758;23;20721;-78
2023/06/05 07:59:17;;;;;;;1.83;1.63;;;21.40;94.40;;;;;;6061282;23;20387;-78
2023/06/05 08:01:45;;;;;;;2.83;2.63;;;21.50;94.00;;;;;;6060337;23;20382;-79
2023/06/05 08:04:12;;;;;;;2.10;1.90;;;21.60;94.40;;;;;;6061050;23;20433;-79
2023/06/05 08:06:39;;;;;;;3.00;2.60;;;21.60;93.60;;;;;;6060703;23;20446;-79
2023/06/05 08:09:10;;;;;;;3.72;2.78;;;21.70;93.70;;;;;;6061638;23;20383;-79
2023/06/05 08:11:38;;;;;;;1.92;1.77;;;21.90;93.60;;;;;;6061515;23;20395;-79
2023/06/05 08:14:06;;;;;;;2.42;2.22;;;22.00;92.00;;;;;;6084281;23;20382;-80
2023/06/05 08:16:33;;;;;;;2.78;1.85;;;22.20;91.50;;;;;;6063393;23;20466;-79
2023/06/05 08:19:01;;;;;;;2.58;2.00;;;22.20;89.40;;;;;;6060123;23;20403;-79
2023/06/05 08:21:28;;;;;;;1.85;1.23;;;22.40;89.30;;;;;;6061820;23;20722;-80
2023/06/05 08:23:55;;;;;;;0.68;0.45;;;22.60;85.10;;;;;;6060284;23;20390;-80
2023/06/05 08:26:22;;;;;;;0.95;0.60;;;22.60;74.10;;;;;;6062773;23;20495;-80
2023/06/05 08:28:49;;;;;;;1.90;0.50;;;22.50;72.20;;;;;;6060217;23;20387;-80
2023/06/05 08:31:16;;;;;;;0.90;0.60;;;22.50;64.10;;;;;;6061517;23;20912;-80
2023/06/05 08:33:44;;;;;;;1.03;0.50;;;22.50;68.90;;;;;;6059779;23;20418;-80
2023/06/05 08:36:11;;;;;;;1.00;0.63;;;22.40;63.90;;;;;;6061850;23;20534;-81
2023/06/05 08:38:37;;;;;;;1.40;0.60;;;22.30;66.50;;;;;;6061356;23;20713;-81
2023/06/05 08:41:10;;;;;;;1.20;0.70;;;22.50;70.20;;;;;;6037670;23;20429;-81
2023/06/05 08:43:38;;;;;;;0.70;0.70;;;22.50;67.60;;;;;;6060818;23;20721;-80
2023/06/05 08:46:07;;;;;;;3.03;0.80;;;22.60;68.80;;;;;;6061002;23;20380;-82
2023/06/05 08:48:41;;;;;;;0.70;0.70;;;22.70;63.60;;;;;;6060522;23;20379;-80
2023/06/05 08:51:16;;;;;;;1.20;0.75;;;22.60;65.70;;;;;;6061006;23;20773;-81
2023/06/05 08:54:06;;;;;;;1.15;0.73;;;22.70;64.70;;;;;;6061270;23;20415;-81
2023/06/05 08:56:36;;;;;;;1.90;0.80;;;22.70;66.80;;;;;;6060528;23;20740;-81
2023/06/05 08:59:05;;;;;;;1.90;0.80;;;22.90;70.20;;;;;;6061208;23;20488;-81
2023/06/05 09:01:32;;;;;;;1.10;1.00;;;23.00;67.20;;;;;;6061527;23;20387;-81
2023/06/05 09:03:59;;;;;;;1.90;1.08;;;23.00;67.00;;;;;;6061681;23;20454;-81
2023/06/05 09:06:27;;;;;;;1.38;1.10;;;23.00;66.60;;;;;;6059896;23;20391;-81
2023/06/05 09:08:55;;;;;;;2.03;1.20;;;23.10;67.00;;;;;;6061734;23;20378;-81
2023/06/05 09:11:28;;;;;;;1.70;1.02;;;23.30;66.80;;;;;;6060177;23;20387;-81
2023/06/05 09:13:59;;;;;;;1.52;1.20;;;23.40;65.10;;;;;;6062675;23;20458;-81
2023/06/05 09:16:44;;;;;;;2.80;1.50;;;23.50;65.50;;;;;;6061527;23;20753;-81
2023/06/05 09:19:12;;;;;;;1.42;1.23;;;23.50;62.00;;;;;;6062525;23;20872;-80
2023/06/05 09:21:40;;;;;;;2.20;2.00;;;23.40;63.50;;;;;;6062907;23;20443;-81
2023/06/05 09:24:15;;;;;;;1.30;1.20;;;23.40;61.90;;;;;;6063126;23;20701;-81
2023/06/05 09:27:11;;;;;;;1.80;1.52;;;23.30;62.60;;;;;;6062356;23;20789;-80
2023/06/05 09:29:40;;;;;;;2.10;1.67;;;23.20;66.40;;;;;;6060742;23;20383;-81
2023/06/05 09:32:18;;;;;;;1.53;1.30;;;23.10;61.80;;;;;;6062630;23;20446;-80
2023/06/05 09:34:45;;;;;;;1.70;1.30;;;22.90;62.40;;;;;;6063886;23;20713;-81
2023/06/05 09:37:13;;;;;;;2.00;1.33;;;22.80;61.70;;;;;;6062701;23;20446;-80
2023/06/05 09:39:44;;;;;;;1.60;1.48;;;22.80;67.60;;;;;;6062392;23;20387;-81
2023/06/05 09:42:11;;;;;;;1.35;1.15;;;22.80;68.30;;;;;;6062603;23;20437;-80
2023/06/05 09:44:38;;;;;;;1.45;1.10;;;22.80;66.10;;;;;;6062021;23;20386;-80
2023/06/05 09:47:08;;;;;;;1.35;1.00;;;22.80;65.10;;;;;;6063007;23;20421;-80
2023/06/05 09:49:41;;;;;;;1.83;1.20;;;22.90;67.10;;;;;;6059302;23;20419;-80
2023/06/05 09:52:10;;;;;;;1.30;1.00;;;22.90;67.00;;;;;;6064187;23;20390;-81
2023/06/05 09:54:44;;;;;;;1.90;1.13;;;22.90;64.40;;;;;;6061340;23;20403;-81
2023/06/05 09:57:13;;;;;;;1.25;1.02;;;22.90;65.40;;;;;;6062919;23;20383;-81
2023/06/05 09:59:41;;;;;;;1.27;1.02;;;22.90;64.90;;;;;;6061783;23;20383;-81
2023/06/05 10:02:09;;;;;;;1.73;1.00;;;23.00;64.90;;;;;;6062677;23;20454;-80
2023/06/05 10:04:45;;;;;;;1.88;1.30;;;23.00;63.50;;;;;;6061035;23;20390;-80
2023/06/05 10:07:13;;;;;;;1.88;1.50;;;22.90;64.30;;;;;;6063789;23;20713;-81
2023/06/05 10:09:41;;;;;;;1.40;1.20;;;22.90;63.30;;;;;;6061772;23;20750;-79
2023/06/05 10:12:09;;;;;;;1.20;0.80;;;22.90;61.90;;;;;;6062636;23;20439;-80
2023/06/05 10:14:36;;;;;;;0.80;0.80;;;22.80;65.70;;;;;;6061835;23;20391;-80
2023/06/05 10:17:03;;;;;;;1.90;1.30;;;22.90;66.60;;;;;;6062752;23;20694;-79
2023/06/05 10:19:30;;;;;;;1.42;1.20;;;22.90;67.80;;;;;;6062382;23;20750;-80
2023/06/05 10:21:57;;;;;;;1.60;1.00;;;22.90;65.50;;;;;;6062840;23;20379;-80
2023/06/05 10:24:41;;;;;;;1.75;1.55;;;22.90;66.00;;;;;;6061492;23;20386;-79
2023/06/05 10:27:14;;;;;;;1.30;1.20;;;22.90;66.00;;;;;;6061822;23;20379;-80
2023/06/05 10:30:18;;;;;;;1.60;1.50;;;22.80;66.50;;;;;;6061954;23;20447;-79
2023/06/05 10:33:12;;;;;;;1.88;1.30;;;22.80;63.20;;;;;;6061669;23;20387;-78
2023/06/05 10:35:42;;;;;;;1.20;1.08;;;22.70;66.40;;;;;;6061375;23;20403;-79
2023/06/05 10:38:27;;;;;;;1.00;0.90;;;22.70;67.20;;;;;;6061856;23;20398;-79
2023/06/05 10:40:55;;;;;;;1.60;1.33;;;22.70;66.80;;;;;;6061741;23;20379;-79
2023/06/05 10:43:48;;;;;;;1.73;1.63;;;22.70;67.20;;;;;;6062032;23;20735;-79
2023/06/05 10:46:30;;;;;;;2.45;1.60;;;22.70;67.80;;;;;;6062102;23;20378;-79
2023/06/05 10:49:14;;;;;;;2.80;2.60;;;22.70;67.70;;;;;;6061103;23;20387;-79
2023/06/05 10:51:49;;;;;;;3.45;3.05;;;22.60;66.20;;;;;;6062394;23;20807;-80
2023/06/05 10:54:22;;;;;;;3.88;3.50;;;22.60;68.30;;;;;;6061793;23;20383;-80
2023/06/05 10:57:02;;;;;;;3.20;2.90;;;22.40;65.50;;;;;;6062074;23;20397;-80
2023/06/05 10:59:37;;;;;;;3.15;2.85;;;22.40;68.20;;;;;;6061627;23;20493;-80
2023/06/05 11:02:12;;;;;;;5.40;4.90;;;22.40;70.60;;;;;;6062420;23;20391;-79
2023/06/05 11:04:42;;;;;;;4.68;4.25;;;22.50;68.90;;;;;;6085160;23;20874;-79
2023/06/05 11:07:20;;;;;;;5.70;4.90;;;22.40;68.00;;;;;;6063252;23;20714;-80
2023/06/05 11:10:02;;;;;;;4.40;4.00;;;22.40;68.30;;;;;;6061371;23;20769;-79
2023/06/05 11:12:38;;;;;;;5.78;5.28;;;22.40;69.80;;;;;;6062611;23;20687;-79
2023/06/05 11:15:07;;;;;;;5.60;4.60;;;22.40;68.20;;;;;;6061732;23;20393;-79
2023/06/05 11:17:39;;;;;;;5.10;4.25;;;22.30;69.20;;;;;;6060981;23;20391;-79
2023/06/05 11:20:10;;;;;;;4.30;3.93;;;22.40;70.40;;;;;;6061932;23;20470;-80
2023/06/05 11:23:06;;;;;;;4.60;4.20;;;22.50;70.70;;;;;;6062274;23;20414;-79
2023/06/05 11:25:34;;;;;;;5.10;4.60;;;22.60;66.40;;;;;;6048985;23;20383;-80
2023/06/05 11:28:05;;;;;;;4.00;3.70;;;22.60;66.50;;;;;;6063620;23;20411;-80
2023/06/05 11:30:38;;;;;;;4.15;3.75;;;22.60;65.40;;;;;;6060397;23;20394;-80
2023/06/05 11:33:17;;;;;;;3.92;3.63;;;22.60;68.10;;;;;;6061670;23;20395;-80
2023/06/05 11:35:47;;;;;;;4.32;3.92;;;22.80;69.30;;;;;;6060792;23;20748;-81
2023/06/05 11:38:18;;;;;;;4.17;3.77;;;22.80;68.10;;;;;;6063202;23;20395;-80
2023/06/05 11:40:48;;;;;;;4.97;3.85;;;23.00;66.90;;;;;;6060927;23;20394;-80
2023/06/05 11:43:15;;;;;;;4.53;4.13;;;23.10;65.00;;;;;;6061881;23;20486;-80
2023/06/05 11:45:56;;;;;;;3.53;3.00;;;23.20;63.30;;;;;;6061503;23;20418;-80
2023/06/05 11:48:25;;;;;;;3.42;3.13;;;23.30;65.10;;;;;;6061453;23;20386;-80
2023/06/05 11:50:55;;;;;;;3.95;3.35;;;23.50;63.30;;;;;;6061019;23;20383;-80
2023/06/05 11:53:22;;;;;;;4.38;3.63;;;23.50;60.10;;;;;;6061607;23;20391;-80
2023/06/05 11:58:29;;;;;;;3.83;3.47;;;23.30;62.00;;;;;;6062485;23;20387;-80
2023/06/05 12:01:21;;;;;;;4.22;3.22;;;23.30;61.70;;;;;;6062772;23;20422;-80
2023/06/05 12:04:03;;;;;;;3.83;3.42;;;23.50;66.80;;;;;;6060824;23;20828;-80
2023/06/05 12:06:31;;;;;;;6.15;4.03;;;23.90;68.70;;;;;;6060818;23;20454;-80
2023/06/05 12:09:11;;;;;;;3.88;3.30;;;24.20;59.80;;;;;;6060537;23;20439;-81
2023/06/05 12:11:38;;;;;;;6.60;4.07;;;24.40;61.90;;;;;;6060590;23;20428;-80
2023/06/05 12:14:06;;;;;;;3.85;3.38;;;24.60;60.10;;;;;;6062537;23;20383;-80
2023/06/05 12:16:35;;;;;;;3.53;3.22;;;24.70;59.70;;;;;;6061408;23;20450;-80
2023/06/05 12:19:13;;;;;;;4.20;3.42;;;25.00;59.10;;;;;;6060986;23;20709;-81
2023/06/05 12:21:43;;;;;;;4.07;3.67;;;25.10;58.00;;;;;;6060898;23;20398;-80
2023/06/05 12:24:11;;;;;;;4.40;4.00;;;24.90;55.30;;;;;;6061028;23;20393;-80
2023/06/05 12:27:01;;;;;;;4.40;3.80;;;24.60;56.80;;;;;;6060678;23;20418;-80
2023/06/05 12:29:30;;;;;;;4.97;4.03;;;24.30;57.90;;;;;;6061563;23;20722;-82
2023/06/05 12:32:00;;;;;;;4.38;3.97;;;24.10;59.00;;;;;;6061589;23;20789;-82
2023/06/05 12:34:41;;;;;;;3.85;3.55;;;24.00;59.40;;;;;;6061385;23;20466;-80
2023/06/05 12:37:40;;;;;;;4.55;4.00;;;23.80;59.60;;;;;;6061286;23;21028;-80
2023/06/05 12:40:10;;;;;;;4.20;3.80;;;23.80;60.50;;;;;;6059869;23;20383;-80
2023/06/05 12:42:40;;;;;;;3.67;3.38;;;23.70;60.30;;;;;;6061107;23;20383;-81
2023/06/05 12:45:08;;;;;;;4.75;4.32;;;23.70;61.60;;;;;;6060417;23;20383;-81
2023/06/05 12:47:36;;;;;;;5.05;4.07;;;23.70;59.60;;;;;;6061295;23;20435;-81
2023/06/05 12:50:11;;;;;;;3.00;2.70;;;23.50;62.00;;;;;;6061463;23;20389;-80
2023/06/05 12:52:40;;;;;;;3.03;2.83;;;23.40;63.80;;;;;;6062702;23;20387;-81
2023/06/05 12:55:08;;;;;;;4.10;3.20;;;23.50;67.50;;;;;;6060492;23;20383;-81
2023/06/05 12:57:35;;;;;;;4.00;3.60;;;23.50;67.10;;;;;;6061501;23;20439;-80
2023/06/05 13:00:13;;;;;;;3.73;3.43;;;23.70;65.30;;;;;;6061041;23;20409;-80
2023/06/05 13:02:48;;;;;;;3.63;3.20;;;23.70;61.30;;;;;;6060996;23;20386;-81
2023/06/05 13:05:15;;;;;;;4.03;3.72;;;23.70;62.50;;;;;;6061201;23;20417;-81
2023/06/05 13:07:43;;;;;;;4.07;3.77;;;23.70;64.20;;;;;;6060608;23;20370;-80
2023/06/05 13:10:12;;;;;;;4.40;4.00;;;23.70;62.10;;;;;;6061012;23;20398;-81
2023/06/05 13:12:39;;;;;;;5.13;4.60;;;23.70;62.80;;;;;;6060389;23;20397;-79
2023/06/05 13:15:07;;;;;;;4.32;3.92;;;23.50;62.70;;;;;;6060856;23;20391;-81
2023/06/05 13:17:35;;;;;;;4.60;4.20;;;23.40;63.60;;;;;;6060284;23;20839;-80
2023/06/05 13:20:06;;;;;;;4.35;3.95;;;23.30;66.60;;;;;;6061388;23;20431;-82
2023/06/05 13:22:35;;;;;;;4.35;3.70;;;23.20;66.80;;;;;;6061622;23;20382;-81
2023/06/05 13:25:02;;;;;;;4.80;4.30;;;23.10;72.60;;;;;;6061229;23;20379;-81
2023/06/05 13:27:29;;;;;;;3.83;3.53;;;23.00;79.30;;;;;;6059563;23;20386;-81
2023/06/05 13:29:56;;;;;;;3.40;3.08;;;22.90;82.80;;;;;;6061333;23;20387;-81
2023/06/05 13:32:23;;;;;;;4.22;3.90;;;22.90;82.30;;;;;;6059504;23;20438;-81
2023/06/05 13:34:50;;;;;;;5.25;4.60;;;22.80;85.20;;;;;;6061306;23;20375;-81
2023/06/05 13:37:17;;;;;;;6.22;5.63;;;22.70;88.90;;;;;;6061207;23;20386;-81
2023/06/05 13:39:45;;;;;;;5.88;5.28;;;22.60;91.80;;;;;;6060389;23;20410;-81
2023/06/05 13:42:12;;;;;;;4.53;4.13;;;22.40;91.80;;;;;;6061166;23;20498;-82
2023/06/05 13:44:39;;;;;;;5.30;4.72;;;22.30;91.00;;;;;;6059904;23;20391;-82
2023/06/05 13:47:08;;;;;;;5.63;5.13;;;22.30;90.80;;;;;;6061138;23;20711;-82
2023/06/05 13:49:35;;;;;;;6.00;5.40;;;22.20;89.20;;;;;;6058885;23;20450;-81
2023/06/05 13:52:02;;;;;;;5.80;5.20;;;22.20;87.10;;;;;;6060299;23;20721;-81
2023/06/05 13:54:29;;;;;;;6.72;6.13;;;22.10;93.10;;;;;;6060777;23;20386;-80
2023/06/05 13:56:58;;;;;;;5.82;5.30;;;22.10;92.80;;;;;;6060011;23;20434;-82
2023/06/05 13:59:25;;;;;;;5.17;4.77;;;22.00;92.20;;;;;;6059994;23;20403;-81
2023/06/05 14:01:53;;;;;;;5.10;4.60;;;22.00;92.20;;;;;;6060691;23;20383;-84
2023/06/05 14:04:20;;;;;;;6.15;4.70;;;22.10;91.00;;;;;;6063719;23;20385;-85
2023/06/05 14:06:47;;;;;;;4.55;4.10;;;22.20;91.30;;;;;;6062798;23;20791;-85
2023/06/05 14:09:14;;;;;;;3.33;2.90;;;22.30;90.10;;;;;;6062875;23;20552;-86
2023/06/05 14:11:44;;;;;;;3.78;3.28;;;22.50;85.80;;;;;;6061734;23;20383;-87
2023/06/05 14:14:12;;;;;;;3.10;1.92;;;22.90;83.60;;;;;;6062778;23;20426;-87
2023/06/05 14:16:39;;;;;;;2.13;1.83;;;23.30;77.60;;;;;;6062574;23;20386;-87
2023/06/05 14:19:05;;;;;;;1.92;1.70;;;23.70;73.70;;;;;;6062690;23;20713;-86
2023/06/05 14:21:32;;;;;;;2.40;1.57;;;24.20;70.10;;;;;;6061649;23;20383;-87
2023/06/05 14:23:59;;;;;;;2.70;1.70;;;24.70;69.50;;;;;;6063274;23;20387;-87
2023/06/05 14:26:26;;;;;;;2.90;1.95;;;25.00;65.10;;;;;;6061667;23;20372;-85
2023/06/05 14:28:57;;;;;;;2.42;1.67;;;25.40;62.60;;;;;;6062406;23;20386;-86
2023/06/05 14:31:25;;;;;;;2.20;1.20;;;25.60;60.00;;;;;;6062972;23;20385;-87
2023/06/05 14:33:52;;;;;;;2.05;1.42;;;25.90;58.80;;;;;;6062077;23;20385;-87
2023/06/05 14:36:19;;;;;;;2.72;2.35;;;26.20;56.70;;;;;;6067481;23;20379;-86
2023/06/05 14:38:46;;;;;;;2.95;2.00;;;26.30;55.70;;;;;;6062284;23;20383;-86